createdAt,value
2022-09-21T00:05:33.262Z,7.38
2022-09-21T00:12:16.537Z,8.00
2022-09-21T00:18:59.724Z,7.28
2022-09-21T00:25:43.281Z,6.60
2022-09-21T00:32:25.583Z,6.63
2022-09-21T00:39:09.627Z,6.95
2022-09-21T00:46:00.239Z,5.93
2022-09-21T00:52:47.990Z,6.20
2022-09-21T00:59:37.301Z,5.32
2022-09-21T01:06:21.071Z,6.60
2022-09-21T01:13:41.683Z,7.10
2022-09-21T01:21:02.537Z,6.43
2022-09-21T01:27:59.775Z,6.72
2022-09-21T01:34:58.238Z,6.85
2022-09-21T01:41:42.994Z,7.45
2022-09-21T01:48:25.966Z,6.72
2022-09-21T01:55:17.570Z,6.55
2022-09-21T02:02:13.478Z,6.45
2022-09-21T02:08:56.329Z,6.20
2022-09-21T02:15:47.842Z,6.10
2022-09-21T02:22:45.232Z,6.07
2022-09-21T02:29:43.592Z,6.47
2022-09-21T02:36:35.573Z,6.05
2022-09-21T02:43:39.078Z,6.25
2022-09-21T02:50:33.423Z,6.30
2022-09-21T02:57:18.078Z,6.35
2022-09-21T03:04:00.569Z,6.15
2022-09-21T03:10:43.132Z,6.63
2022-09-21T03:17:25.999Z,6.90
2022-09-21T03:24:08.340Z,7.38
2022-09-21T03:30:51.740Z,6.80
2022-09-21T03:37:36.106Z,7.85
2022-09-21T03:44:22.174Z,7.70
2022-09-21T03:51:04.601Z,9.82
2022-09-21T03:57:47.605Z,7.68
2022-09-21T04:04:29.897Z,6.57
2022-09-21T04:11:18.461Z,6.78
2022-09-21T04:18:00.801Z,6.22
2022-09-21T04:24:43.101Z,5.75
2022-09-21T04:31:30.269Z,6.38
2022-09-21T04:38:13.871Z,7.03
2022-09-21T04:44:56.250Z,6.97
2022-09-21T04:51:39.034Z,7.40
2022-09-21T04:58:24.651Z,6.72
2022-09-21T05:05:07.437Z,5.93
2022-09-21T05:11:49.876Z,7.03
2022-09-21T05:18:32.222Z,7.05
2022-09-21T05:25:14.698Z,8.27
2022-09-21T05:32:23.544Z,7.15
2022-09-21T05:39:06.976Z,7.00
2022-09-21T05:45:58.762Z,8.65
2022-09-21T05:53:11.877Z,8.10
2022-09-21T06:00:12.263Z,9.10
2022-09-21T06:06:54.568Z,10.25
2022-09-21T06:13:37.459Z,9.25
2022-09-21T06:20:19.776Z,8.40
2022-09-21T06:27:02.118Z,7.03
2022-09-21T06:33:48.029Z,5.68
2022-09-21T06:40:31.838Z,6.20
2022-09-21T06:47:14.150Z,6.35
2022-09-21T06:53:58.102Z,5.80
2022-09-21T07:00:40.453Z,6.90
2022-09-21T07:07:22.992Z,6.22
2022-09-21T07:14:05.492Z,6.05
2022-09-21T07:20:49.114Z,6.68
2022-09-21T07:27:33.138Z,6.32
2022-09-21T07:34:15.449Z,6.68
2022-09-21T07:41:02.561Z,6.60
2022-09-21T07:47:46.315Z,6.43
2022-09-21T07:54:28.807Z,5.97
2022-09-21T08:01:11.832Z,5.35
2022-09-21T08:07:57.990Z,5.03
2022-09-21T08:14:40.555Z,6.72
2022-09-21T08:21:23.043Z,7.97
2022-09-21T08:28:09.600Z,4.80
2022-09-21T08:34:52.190Z,3.28
2022-09-21T08:41:46.481Z,3.05
2022-09-21T08:48:36.448Z,2.70
2022-09-21T08:55:20.736Z,3.20
2022-09-21T09:02:17.989Z,2.15
2022-09-21T09:09:19.102Z,2.45
2022-09-21T09:16:06.214Z,2.60
2022-09-21T09:23:20.719Z,2.35
2022-09-21T09:30:10.962Z,2.13
2022-09-21T09:37:15.190Z,1.80
2022-09-21T09:44:46.770Z,1.65
2022-09-21T09:51:29.455Z,1.02
2022-09-21T09:58:21.855Z,1.90
2022-09-21T10:05:06.534Z,2.40
2022-09-21T10:11:49.328Z,2.50
2022-09-21T10:19:01.355Z,2.88
2022-09-21T10:25:43.792Z,2.35
2022-09-21T10:32:28.175Z,2.67
2022-09-21T10:39:31.284Z,2.65
2022-09-21T10:46:14.373Z,2.55
2022-09-21T10:53:18.335Z,2.08
2022-09-21T11:00:37.715Z,1.80
2022-09-21T11:07:34.272Z,1.83
2022-09-21T11:14:45.277Z,1.75
2022-09-21T11:21:41.745Z,1.65
2022-09-21T11:28:35.743Z,1.38
2022-09-21T11:35:43.572Z,1.60
2022-09-21T11:43:01.637Z,1.00
2022-09-21T11:49:43.904Z,1.23
2022-09-21T11:56:36.429Z,1.15
2022-09-21T12:03:35.540Z,1.20
2022-09-21T12:10:57.208Z,1.13
2022-09-21T12:18:32.463Z,1.05
2022-09-21T12:25:27.300Z,1.60
2022-09-21T12:32:25.198Z,1.50
2022-09-21T12:39:22.909Z,1.00
2022-09-21T12:46:25.386Z,1.13
2022-09-21T12:53:14.699Z,1.17
2022-09-21T13:00:08.041Z,0.90
2022-09-21T13:07:21.022Z,1.10
2022-09-21T13:14:04.704Z,0.90
2022-09-21T13:20:48.167Z,1.00
2022-09-21T13:28:16.636Z,1.15
2022-09-21T13:35:37.386Z,1.30
2022-09-21T13:42:34.919Z,1.00
2022-09-21T13:49:23.492Z,1.20
2022-09-21T13:56:18.006Z,1.30
2022-09-21T14:03:23.069Z,1.10
2022-09-21T14:10:08.228Z,1.00
2022-09-21T14:16:53.337Z,0.90
2022-09-21T14:23:37.698Z,1.10
2022-09-21T14:30:25.684Z,1.30
2022-09-21T14:37:30.374Z,1.27
2022-09-21T14:44:23.359Z,1.15
2022-09-21T14:51:38.516Z,0.95
2022-09-21T14:58:24.121Z,1.08
2022-09-21T15:05:27.793Z,1.20
2022-09-21T15:12:38.166Z,1.10
2022-09-21T15:19:23.345Z,4.38
2022-09-21T15:26:10.216Z,1.00
2022-09-21T15:32:55.290Z,0.98
2022-09-21T15:39:37.728Z,1.00
2022-09-21T15:46:20.151Z,1.00
2022-09-21T15:53:14.804Z,1.20
2022-09-21T15:59:57.308Z,11.85
2022-09-21T16:06:41.579Z,0.98
2022-09-21T16:13:43.515Z,1.10
2022-09-21T16:20:47.930Z,0.98
2022-09-21T16:27:32.726Z,1.08
2022-09-21T16:34:32.938Z,1.00
2022-09-21T16:41:15.714Z,1.17
2022-09-21T16:47:59.361Z,1.10
2022-09-21T16:54:41.687Z,1.10
2022-09-21T17:01:25.690Z,1.00
2022-09-21T17:08:10.036Z,1.35
2022-09-21T17:14:52.771Z,0.98
2022-09-21T17:21:35.135Z,1.42
2022-09-21T17:28:26.083Z,1.23
2022-09-21T17:35:18.727Z,1.50
2022-09-21T17:42:04.648Z,1.83
2022-09-21T17:48:47.187Z,1.67
2022-09-21T17:55:30.314Z,1.52
2022-09-21T18:02:39.595Z,1.58
2022-09-21T18:09:22.556Z,2.30
2022-09-21T18:16:22.233Z,1.40
2022-09-21T18:23:32.749Z,1.85
2022-09-21T18:30:17.380Z,1.75
2022-09-21T18:37:12.656Z,1.85
2022-09-21T18:44:16.216Z,1.83
2022-09-21T18:51:31.986Z,1.70
2022-09-21T18:58:15.948Z,2.03
2022-09-21T19:04:59.103Z,2.00
2022-09-21T19:11:46.270Z,1.98
2022-09-21T19:18:50.382Z,2.33
2022-09-21T19:25:53.199Z,2.10
2022-09-21T19:32:40.100Z,2.58
2022-09-21T19:39:22.797Z,2.67
2022-09-21T19:46:29.175Z,2.47
2022-09-21T19:53:31.281Z,2.92
2022-09-21T20:00:16.785Z,2.75
2022-09-21T20:07:05.433Z,3.30
2022-09-21T20:14:16.303Z,3.40
2022-09-21T20:20:58.803Z,3.15
2022-09-21T20:27:49.199Z,3.65
2022-09-21T20:34:31.726Z,3.47
2022-09-21T20:41:16.563Z,3.65
2022-09-21T20:48:12.815Z,3.70
2022-09-21T20:54:55.231Z,4.32
2022-09-21T21:01:37.661Z,3.75
2022-09-21T21:08:20.127Z,4.43
2022-09-21T21:15:04.540Z,3.67
2022-09-21T21:21:50.620Z,3.65
2022-09-21T21:28:34.377Z,3.70
2022-09-21T21:35:16.787Z,3.40
2022-09-21T21:41:59.082Z,3.80
2022-09-21T21:48:41.426Z,3.67
2022-09-21T21:55:23.989Z,4.00
2022-09-21T22:02:06.423Z,4.45
2022-09-21T22:08:49.644Z,3.67
2022-09-21T22:15:33.750Z,3.90
2022-09-21T22:22:16.052Z,4.18
2022-09-21T22:29:01.963Z,5.15
2022-09-21T22:35:44.281Z,4.68
2022-09-21T22:42:26.995Z,4.60
2022-09-21T22:49:09.654Z,4.85
2022-09-21T22:56:07.781Z,4.85
2022-09-21T23:02:54.271Z,4.82
2022-09-21T23:09:36.936Z,4.40
2022-09-21T23:16:20.107Z,5.18
2022-09-21T23:23:03.645Z,5.80
2022-09-21T23:29:46.330Z,4.63
2022-09-21T23:36:30.609Z,5.18
2022-09-21T23:43:13.383Z,4.35
2022-09-21T23:49:56.108Z,4.32
2022-09-21T23:56:39.336Z,4.68
